sensor_id;sensor_type;location;lat;lon;timestamp;P1;durP1;ratioP1;P2;durP2;ratioP2
18983;SDS011;9626;52.552;13.436;2022-11-15T00:02:00;40.90;;;29.93;;
18983;SDS011;9626;52.552;13.436;2022-11-15T00:04:26;39.13;;;28.40;;
18983;SDS011;9626;52.552;13.436;2022-11-15T00:06:52;40.63;;;29.60;;
18983;SDS011;9626;52.552;13.436;2022-11-15T00:09:18;38.20;;;28.83;;
18983;SDS011;9626;52.552;13.436;2022-11-15T00:11:44;39.93;;;28.57;;
18983;SDS011;9626;52.552;13.436;2022-11-15T00:14:10;41.37;;;28.90;;
18983;SDS011;9626;52.552;13.436;2022-11-15T00:16:36;37.47;;;27.80;;
18983;SDS011;9626;52.552;13.436;2022-11-15T00:19:02;41.00;;;27.80;;
18983;SDS011;9626;52.552;13.436;2022-11-15T00:21:28;38.63;;;28.30;;
18983;SDS011;9626;52.552;13.436;2022-11-15T00:23:54;41.50;;;29.57;;
18983;SDS011;9626;52.552;13.436;2022-11-15T00:26:21;37.37;;;29.23;;
18983;SDS011;9626;52.552;13.436;2022-11-15T00:28:47;40.47;;;29.77;;
18983;SDS011;9626;52.552;13.436;2022-11-15T00:31:13;39.33;;;30.17;;
18983;SDS011;9626;52.552;13.436;2022-11-15T00:33:40;40.60;;;29.77;;
18983;SDS011;9626;52.552;13.436;2022-11-15T00:36:08;41.43;;;30.10;;
18983;SDS011;9626;52.552;13.436;2022-11-15T00:38:37;40.10;;;30.23;;
18983;SDS011;9626;52.552;13.436;2022-11-15T00:41:05;43.10;;;29.47;;
18983;SDS011;9626;52.552;13.436;2022-11-15T00:43:32;42.57;;;31.80;;
18983;SDS011;9626;52.552;13.436;2022-11-15T00:45:59;40.77;;;29.67;;
18983;SDS011;9626;52.552;13.436;2022-11-15T00:48:25;41.40;;;29.67;;
18983;SDS011;9626;52.552;13.436;2022-11-15T00:50:51;41.83;;;30.47;;
18983;SDS011;9626;52.552;13.436;2022-11-15T00:53:17;38.63;;;28.93;;
18983;SDS011;9626;52.552;13.436;2022-11-15T00:55:43;43.43;;;29.53;;
18983;SDS011;9626;52.552;13.436;2022-11-15T00:58:09;40.20;;;29.90;;
18983;SDS011;9626;52.552;13.436;2022-11-15T01:00:35;40.53;;;29.33;;
18983;SDS011;9626;52.552;13.436;2022-11-15T01:03:01;38.60;;;28.90;;
18983;SDS011;9626;52.552;13.436;2022-11-15T01:05:27;41.63;;;30.37;;
18983;SDS011;9626;52.552;13.436;2022-11-15T01:07:54;38.47;;;29.73;;
18983;SDS011;9626;52.552;13.436;2022-11-15T01:10:21;39.80;;;29.00;;
18983;SDS011;9626;52.552;13.436;2022-11-15T01:12:48;38.97;;;29.50;;
18983;SDS011;9626;52.552;13.436;2022-11-15T01:15:14;39.60;;;28.37;;
18983;SDS011;9626;52.552;13.436;2022-11-15T01:17:41;40.10;;;30.13;;
18983;SDS011;9626;52.552;13.436;2022-11-15T01:20:07;41.13;;;29.43;;
18983;SDS011;9626;52.552;13.436;2022-11-15T01:22:33;41.37;;;29.37;;
18983;SDS011;9626;52.552;13.436;2022-11-15T01:24:59;38.80;;;29.10;;
18983;SDS011;9626;52.552;13.436;2022-11-15T01:27:25;40.17;;;29.20;;
18983;SDS011;9626;52.552;13.436;2022-11-15T01:29:52;39.73;;;29.53;;
18983;SDS011;9626;52.552;13.436;2022-11-15T01:32:18;41.93;;;30.37;;
18983;SDS011;9626;52.552;13.436;2022-11-15T01:34:44;43.57;;;29.90;;
18983;SDS011;9626;52.552;13.436;2022-11-15T01:37:10;44.33;;;31.00;;
18983;SDS011;9626;52.552;13.436;2022-11-15T01:39:36;37.03;;;28.53;;
18983;SDS011;9626;52.552;13.436;2022-11-15T01:42:02;39.73;;;29.27;;
18983;SDS011;9626;52.552;13.436;2022-11-15T01:47:19;38.47;;;28.27;;
18983;SDS011;9626;52.552;13.436;2022-11-15T01:52:24;39.90;;;28.60;;
18983;SDS011;9626;52.552;13.436;2022-11-15T01:55:02;43.67;;;30.53;;
18983;SDS011;9626;52.552;13.436;2022-11-15T01:57:39;39.97;;;29.30;;
18983;SDS011;9626;52.552;13.436;2022-11-15T02:00:08;41.60;;;29.67;;
18983;SDS011;9626;52.552;13.436;2022-11-15T02:02:35;39.60;;;29.20;;
18983;SDS011;9626;52.552;13.436;2022-11-15T02:05:03;41.03;;;28.80;;
18983;SDS011;9626;52.552;13.436;2022-11-15T02:07:29;42.10;;;30.30;;
18983;SDS011;9626;52.552;13.436;2022-11-15T02:10:02;41.07;;;29.20;;
18983;SDS011;9626;52.552;13.436;2022-11-15T02:12:32;42.00;;;28.67;;
18983;SDS011;9626;52.552;13.436;2022-11-15T02:14:59;41.10;;;29.43;;
18983;SDS011;9626;52.552;13.436;2022-11-15T02:29:01;44.07;;;29.93;;
18983;SDS011;9626;52.552;13.436;2022-11-15T02:31:35;42.63;;;28.87;;
18983;SDS011;9626;52.552;13.436;2022-11-15T02:37:05;40.20;;;29.97;;
18983;SDS011;9626;52.552;13.436;2022-11-15T02:39:50;38.93;;;29.73;;
18983;SDS011;9626;52.552;13.436;2022-11-15T02:42:27;40.37;;;29.63;;
18983;SDS011;9626;52.552;13.436;2022-11-15T02:45:17;41.13;;;28.70;;
18983;SDS011;9626;52.552;13.436;2022-11-15T02:47:50;38.07;;;29.03;;
18983;SDS011;9626;52.552;13.436;2022-11-15T02:50:21;38.40;;;29.47;;
18983;SDS011;9626;52.552;13.436;2022-11-15T02:52:51;39.97;;;28.93;;
18983;SDS011;9626;52.552;13.436;2022-11-15T02:55:30;43.53;;;30.37;;
18983;SDS011;9626;52.552;13.436;2022-11-15T03:00:32;40.40;;;30.23;;
18983;SDS011;9626;52.552;13.436;2022-11-15T03:11:40;39.77;;;28.13;;
18983;SDS011;9626;52.552;13.436;2022-11-15T03:16:50;40.67;;;30.33;;
18983;SDS011;9626;52.552;13.436;2022-11-15T03:19:35;40.03;;;29.77;;
18983;SDS011;9626;52.552;13.436;2022-11-15T03:22:14;38.97;;;29.47;;
18983;SDS011;9626;52.552;13.436;2022-11-15T03:24:45;37.97;;;28.20;;
18983;SDS011;9626;52.552;13.436;2022-11-15T03:27:17;39.43;;;29.10;;
18983;SDS011;9626;52.552;13.436;2022-11-15T03:29:49;39.30;;;30.07;;
18983;SDS011;9626;52.552;13.436;2022-11-15T03:32:20;37.23;;;28.03;;
18983;SDS011;9626;52.552;13.436;2022-11-15T03:34:58;41.30;;;29.10;;
18983;SDS011;9626;52.552;13.436;2022-11-15T03:40:40;39.30;;;28.43;;
18983;SDS011;9626;52.552;13.436;2022-11-15T03:46:05;39.20;;;28.23;;
18983;SDS011;9626;52.552;13.436;2022-11-15T03:48:38;42.63;;;31.93;;
18983;SDS011;9626;52.552;13.436;2022-11-15T03:51:07;42.63;;;30.20;;
18983;SDS011;9626;52.552;13.436;2022-11-15T03:53:33;43.43;;;30.63;;
18983;SDS011;9626;52.552;13.436;2022-11-15T03:55:59;38.83;;;28.90;;
18983;SDS011;9626;52.552;13.436;2022-11-15T03:58:25;38.93;;;30.30;;
18983;SDS011;9626;52.552;13.436;2022-11-15T04:00:51;37.70;;;28.53;;
18983;SDS011;9626;52.552;13.436;2022-11-15T04:03:17;37.67;;;28.90;;
18983;SDS011;9626;52.552;13.436;2022-11-15T04:05:44;41.67;;;29.10;;
18983;SDS011;9626;52.552;13.436;2022-11-15T04:08:10;39.63;;;28.50;;
18983;SDS011;9626;52.552;13.436;2022-11-15T04:10:36;37.87;;;28.40;;
18983;SDS011;9626;52.552;13.436;2022-11-15T04:13:02;39.07;;;28.67;;
18983;SDS011;9626;52.552;13.436;2022-11-15T04:15:28;38.53;;;28.10;;
18983;SDS011;9626;52.552;13.436;2022-11-15T04:17:56;38.70;;;29.07;;
18983;SDS011;9626;52.552;13.436;2022-11-15T04:20:24;38.57;;;27.97;;
18983;SDS011;9626;52.552;13.436;2022-11-15T04:23:11;36.93;;;27.27;;
18983;SDS011;9626;52.552;13.436;2022-11-15T04:26:02;35.57;;;26.83;;
18983;SDS011;9626;52.552;13.436;2022-11-15T04:28:30;38.37;;;28.03;;
18983;SDS011;9626;52.552;13.436;2022-11-15T04:30:56;37.67;;;27.80;;
18983;SDS011;9626;52.552;13.436;2022-11-15T04:33:23;38.70;;;28.67;;
18983;SDS011;9626;52.552;13.436;2022-11-15T04:35:49;39.80;;;28.90;;
18983;SDS011;9626;52.552;13.436;2022-11-15T04:38:34;40.60;;;29.33;;
18983;SDS011;9626;52.552;13.436;2022-11-15T04:41:01;39.20;;;28.43;;
18983;SDS011;9626;52.552;13.436;2022-11-15T04:43:28;40.70;;;29.87;;
18983;SDS011;9626;52.552;13.436;2022-11-15T04:45:54;39.50;;;29.13;;
18983;SDS011;9626;52.552;13.436;2022-11-15T04:48:20;37.37;;;27.90;;
18983;SDS011;9626;52.552;13.436;2022-11-15T04:50:47;38.63;;;28.47;;
18983;SDS011;9626;52.552;13.436;2022-11-15T04:53:14;40.27;;;29.67;;
18983;SDS011;9626;52.552;13.436;2022-11-15T04:55:43;40.00;;;28.73;;
18983;SDS011;9626;52.552;13.436;2022-11-15T04:58:10;37.40;;;27.20;;
18983;SDS011;9626;52.552;13.436;2022-11-15T05:00:36;37.60;;;28.03;;
18983;SDS011;9626;52.552;13.436;2022-11-15T05:03:02;37.13;;;28.00;;
18983;SDS011;9626;52.552;13.436;2022-11-15T05:05:47;39.87;;;28.67;;
18983;SDS011;9626;52.552;13.436;2022-11-15T05:08:13;37.80;;;27.40;;
18983;SDS011;9626;52.552;13.436;2022-11-15T05:10:39;38.77;;;28.43;;
18983;SDS011;9626;52.552;13.436;2022-11-15T05:13:05;34.37;;;26.67;;
18983;SDS011;9626;52.552;13.436;2022-11-15T05:15:31;38.23;;;28.87;;
18983;SDS011;9626;52.552;13.436;2022-11-15T05:17:58;37.80;;;27.47;;
18983;SDS011;9626;52.552;13.436;2022-11-15T05:20:26;37.87;;;28.10;;
18983;SDS011;9626;52.552;13.436;2022-11-15T05:22:53;35.40;;;26.90;;
18983;SDS011;9626;52.552;13.436;2022-11-15T05:25:21;36.47;;;25.90;;
18983;SDS011;9626;52.552;13.436;2022-11-15T05:27:48;37.23;;;26.40;;
18983;SDS011;9626;52.552;13.436;2022-11-15T05:30:14;35.53;;;27.77;;
18983;SDS011;9626;52.552;13.436;2022-11-15T05:32:41;36.80;;;28.60;;
18983;SDS011;9626;52.552;13.436;2022-11-15T05:35:08;35.60;;;26.80;;
18983;SDS011;9626;52.552;13.436;2022-11-15T05:37:40;37.33;;;28.17;;
18983;SDS011;9626;52.552;13.436;2022-11-15T05:40:06;38.17;;;27.60;;
18983;SDS011;9626;52.552;13.436;2022-11-15T05:42:33;37.90;;;27.73;;
18983;SDS011;9626;52.552;13.436;2022-11-15T05:44:59;38.70;;;28.73;;
18983;SDS011;9626;52.552;13.436;2022-11-15T05:47:27;36.03;;;26.73;;
18983;SDS011;9626;52.552;13.436;2022-11-15T05:49:55;36.50;;;26.90;;
18983;SDS011;9626;52.552;13.436;2022-11-15T05:52:24;39.57;;;28.67;;
18983;SDS011;9626;52.552;13.436;2022-11-15T05:54:53;38.60;;;28.83;;
18983;SDS011;9626;52.552;13.436;2022-11-15T05:57:21;40.23;;;28.97;;
18983;SDS011;9626;52.552;13.436;2022-11-15T05:59:47;36.37;;;28.57;;
18983;SDS011;9626;52.552;13.436;2022-11-15T06:02:13;37.83;;;28.07;;
18983;SDS011;9626;52.552;13.436;2022-11-15T06:04:39;37.87;;;27.70;;
18983;SDS011;9626;52.552;13.436;2022-11-15T06:07:05;38.37;;;28.03;;
18983;SDS011;9626;52.552;13.436;2022-11-15T06:09:31;38.03;;;28.53;;
18983;SDS011;9626;52.552;13.436;2022-11-15T06:11:57;38.70;;;28.50;;
18983;SDS011;9626;52.552;13.436;2022-11-15T06:14:23;38.93;;;29.17;;
18983;SDS011;9626;52.552;13.436;2022-11-15T06:16:50;41.03;;;28.33;;
18983;SDS011;9626;52.552;13.436;2022-11-15T06:19:16;40.53;;;27.60;;
18983;SDS011;9626;52.552;13.436;2022-11-15T06:21:42;40.90;;;28.73;;
18983;SDS011;9626;52.552;13.436;2022-11-15T06:24:08;43.40;;;29.77;;
18983;SDS011;9626;52.552;13.436;2022-11-15T06:26:34;38.63;;;28.50;;
18983;SDS011;9626;52.552;13.436;2022-11-15T06:29:02;37.97;;;28.00;;
18983;SDS011;9626;52.552;13.436;2022-11-15T06:31:29;39.90;;;30.10;;
18983;SDS011;9626;52.552;13.436;2022-11-15T06:33:56;39.27;;;27.93;;
18983;SDS011;9626;52.552;13.436;2022-11-15T06:36:22;42.50;;;29.53;;
18983;SDS011;9626;52.552;13.436;2022-11-15T06:38:48;39.80;;;30.40;;
18983;SDS011;9626;52.552;13.436;2022-11-15T06:41:14;42.33;;;29.73;;
18983;SDS011;9626;52.552;13.436;2022-11-15T06:43:41;45.77;;;30.67;;
18983;SDS011;9626;52.552;13.436;2022-11-15T06:46:07;41.87;;;28.47;;
18983;SDS011;9626;52.552;13.436;2022-11-15T06:48:33;35.53;;;25.93;;
18983;SDS011;9626;52.552;13.436;2022-11-15T06:51:00;37.93;;;26.83;;
18983;SDS011;9626;52.552;13.436;2022-11-15T06:53:28;37.60;;;28.40;;
18983;SDS011;9626;52.552;13.436;2022-11-15T06:55:58;37.77;;;27.30;;
18983;SDS011;9626;52.552;13.436;2022-11-15T06:58:28;37.20;;;26.43;;
18983;SDS011;9626;52.552;13.436;2022-11-15T07:00:57;37.07;;;26.57;;
18983;SDS011;9626;52.552;13.436;2022-11-15T07:03:35;37.10;;;27.13;;
18983;SDS011;9626;52.552;13.436;2022-11-15T07:06:05;38.60;;;27.40;;
18983;SDS011;9626;52.552;13.436;2022-11-15T07:08:32;37.83;;;27.77;;
18983;SDS011;9626;52.552;13.436;2022-11-15T07:10:59;38.93;;;27.50;;
18983;SDS011;9626;52.552;13.436;2022-11-15T07:13:27;37.10;;;27.50;;
18983;SDS011;9626;52.552;13.436;2022-11-15T07:15:54;41.93;;;27.80;;
18983;SDS011;9626;52.552;13.436;2022-11-15T07:18:20;36.80;;;26.70;;
18983;SDS011;9626;52.552;13.436;2022-11-15T07:20:46;39.00;;;26.03;;
18983;SDS011;9626;52.552;13.436;2022-11-15T07:23:13;36.60;;;27.37;;
18983;SDS011;9626;52.552;13.436;2022-11-15T07:25:39;37.73;;;28.27;;
18983;SDS011;9626;52.552;13.436;2022-11-15T07:28:05;38.07;;;28.33;;
18983;SDS011;9626;52.552;13.436;2022-11-15T07:30:31;35.47;;;26.07;;
18983;SDS011;9626;52.552;13.436;2022-11-15T07:32:57;37.07;;;27.70;;
18983;SDS011;9626;52.552;13.436;2022-11-15T07:35:25;39.57;;;27.67;;
18983;SDS011;9626;52.552;13.436;2022-11-15T07:37:59;37.97;;;27.60;;
18983;SDS011;9626;52.552;13.436;2022-11-15T07:40:29;37.00;;;26.70;;
18983;SDS011;9626;52.552;13.436;2022-11-15T07:43:00;40.87;;;26.80;;
18983;SDS011;9626;52.552;13.436;2022-11-15T07:45:28;35.07;;;27.33;;
18983;SDS011;9626;52.552;13.436;2022-11-15T07:47:54;37.57;;;26.93;;
18983;SDS011;9626;52.552;13.436;2022-11-15T07:50:22;37.40;;;26.93;;
18983;SDS011;9626;52.552;13.436;2022-11-15T07:52:53;38.17;;;27.33;;
18983;SDS011;9626;52.552;13.436;2022-11-15T07:55:21;36.13;;;26.13;;
18983;SDS011;9626;52.552;13.436;2022-11-15T07:57:48;33.97;;;25.07;;
18983;SDS011;9626;52.552;13.436;2022-11-15T08:00:14;35.23;;;25.87;;
18983;SDS011;9626;52.552;13.436;2022-11-15T08:02:40;35.40;;;26.47;;
18983;SDS011;9626;52.552;13.436;2022-11-15T08:05:06;34.83;;;26.80;;
18983;SDS011;9626;52.552;13.436;2022-11-15T08:07:33;34.17;;;25.60;;
18983;SDS011;9626;52.552;13.436;2022-11-15T08:09:59;37.57;;;25.20;;
18983;SDS011;9626;52.552;13.436;2022-11-15T08:12:27;36.37;;;25.23;;
18983;SDS011;9626;52.552;13.436;2022-11-15T08:14:54;33.67;;;25.37;;
18983;SDS011;9626;52.552;13.436;2022-11-15T08:17:22;34.03;;;25.27;;
18983;SDS011;9626;52.552;13.436;2022-11-15T08:19:49;35.63;;;25.57;;
18983;SDS011;9626;52.552;13.436;2022-11-15T08:22:15;31.60;;;25.60;;
18983;SDS011;9626;52.552;13.436;2022-11-15T08:24:41;32.80;;;24.87;;
18983;SDS011;9626;52.552;13.436;2022-11-15T08:27:07;36.83;;;25.53;;
18983;SDS011;9626;52.552;13.436;2022-11-15T08:29:41;34.73;;;26.37;;
18983;SDS011;9626;52.552;13.436;2022-11-15T08:32:08;32.30;;;24.50;;
18983;SDS011;9626;52.552;13.436;2022-11-15T08:34:35;34.63;;;25.50;;
18983;SDS011;9626;52.552;13.436;2022-11-15T08:37:01;33.57;;;24.67;;
18983;SDS011;9626;52.552;13.436;2022-11-15T08:39:27;34.73;;;25.77;;
18983;SDS011;9626;52.552;13.436;2022-11-15T08:41:53;29.90;;;24.63;;
18983;SDS011;9626;52.552;13.436;2022-11-15T08:44:19;33.93;;;25.63;;
18983;SDS011;9626;52.552;13.436;2022-11-15T08:46:45;31.40;;;24.47;;
18983;SDS011;9626;52.552;13.436;2022-11-15T08:49:12;28.40;;;23.43;;
18983;SDS011;9626;52.552;13.436;2022-11-15T08:51:38;27.83;;;24.20;;
18983;SDS011;9626;52.552;13.436;2022-11-15T08:54:04;29.20;;;22.70;;
18983;SDS011;9626;52.552;13.436;2022-11-15T08:56:30;30.23;;;23.50;;
18983;SDS011;9626;52.552;13.436;2022-11-15T08:58:56;30.53;;;22.30;;
18983;SDS011;9626;52.552;13.436;2022-11-15T09:01:22;27.93;;;22.23;;
18983;SDS011;9626;52.552;13.436;2022-11-15T09:03:49;29.33;;;22.90;;
18983;SDS011;9626;52.552;13.436;2022-11-15T09:06:15;33.80;;;23.33;;
18983;SDS011;9626;52.552;13.436;2022-11-15T09:08:41;48.30;;;34.23;;
18983;SDS011;9626;52.552;13.436;2022-11-15T09:11:07;30.20;;;23.87;;
18983;SDS011;9626;52.552;13.436;2022-11-15T09:13:35;30.80;;;21.53;;
18983;SDS011;9626;52.552;13.436;2022-11-15T09:16:05;28.83;;;21.27;;
18983;SDS011;9626;52.552;13.436;2022-11-15T09:18:31;30.33;;;22.60;;
18983;SDS011;9626;52.552;13.436;2022-11-15T09:20:58;27.70;;;21.40;;
18983;SDS011;9626;52.552;13.436;2022-11-15T09:23:25;27.73;;;22.73;;
18983;SDS011;9626;52.552;13.436;2022-11-15T09:25:52;36.83;;;20.80;;
18983;SDS011;9626;52.552;13.436;2022-11-15T09:28:18;34.67;;;21.03;;
18983;SDS011;9626;52.552;13.436;2022-11-15T09:30:44;35.77;;;21.37;;
18983;SDS011;9626;52.552;13.436;2022-11-15T09:33:11;31.27;;;21.80;;
18983;SDS011;9626;52.552;13.436;2022-11-15T09:35:38;35.23;;;21.27;;
18983;SDS011;9626;52.552;13.436;2022-11-15T09:38:04;32.57;;;20.77;;
18983;SDS011;9626;52.552;13.436;2022-11-15T09:40:31;35.57;;;22.70;;
18983;SDS011;9626;52.552;13.436;2022-11-15T09:43:17;27.67;;;20.13;;
18983;SDS011;9626;52.552;13.436;2022-11-15T09:51:33;28.03;;;21.07;;
18983;SDS011;9626;52.552;13.436;2022-11-15T09:57:18;24.37;;;19.13;;
18983;SDS011;9626;52.552;13.436;2022-11-15T10:05:18;29.67;;;19.67;;
18983;SDS011;9626;52.552;13.436;2022-11-15T10:12:50;24.03;;;18.87;;
18983;SDS011;9626;52.552;13.436;2022-11-15T10:15:18;25.30;;;18.80;;
18983;SDS011;9626;52.552;13.436;2022-11-15T10:17:53;25.83;;;19.07;;
18983;SDS011;9626;52.552;13.436;2022-11-15T10:23:46;20.73;;;17.73;;
18983;SDS011;9626;52.552;13.436;2022-11-15T10:26:14;21.53;;;17.73;;
18983;SDS011;9626;52.552;13.436;2022-11-15T10:28:41;29.93;;;18.47;;
18983;SDS011;9626;52.552;13.436;2022-11-15T10:31:26;18.77;;;16.13;;
18983;SDS011;9626;52.552;13.436;2022-11-15T10:37:01;20.97;;;17.10;;
18983;SDS011;9626;52.552;13.436;2022-11-15T10:39:27;23.37;;;17.67;;
18983;SDS011;9626;52.552;13.436;2022-11-15T10:41:54;22.87;;;17.57;;
18983;SDS011;9626;52.552;13.436;2022-11-15T10:44:28;24.63;;;17.13;;
18983;SDS011;9626;52.552;13.436;2022-11-15T10:49:22;21.97;;;16.73;;
18983;SDS011;9626;52.552;13.436;2022-11-15T10:52:02;24.67;;;17.60;;
18983;SDS011;9626;52.552;13.436;2022-11-15T10:54:43;24.77;;;16.93;;
18983;SDS011;9626;52.552;13.436;2022-11-15T10:57:14;26.33;;;17.40;;
18983;SDS011;9626;52.552;13.436;2022-11-15T10:59:46;22.30;;;17.37;;
18983;SDS011;9626;52.552;13.436;2022-11-15T11:02:25;23.17;;;16.97;;
18983;SDS011;9626;52.552;13.436;2022-11-15T11:04:55;23.83;;;17.57;;
18983;SDS011;9626;52.552;13.436;2022-11-15T11:07:23;20.50;;;16.93;;
18983;SDS011;9626;52.552;13.436;2022-11-15T11:13:20;27.77;;;16.63;;
18983;SDS011;9626;52.552;13.436;2022-11-15T11:15:47;22.37;;;16.67;;
18983;SDS011;9626;52.552;13.436;2022-11-15T11:21:10;19.00;;;15.13;;
18983;SDS011;9626;52.552;13.436;2022-11-15T11:35:05;23.60;;;15.80;;
18983;SDS011;9626;52.552;13.436;2022-11-15T11:37:56;18.63;;;14.83;;
18983;SDS011;9626;52.552;13.436;2022-11-15T11:43:07;18.40;;;15.43;;
18983;SDS011;9626;52.552;13.436;2022-11-15T11:46:09;18.17;;;14.23;;
18983;SDS011;9626;52.552;13.436;2022-11-15T11:48:46;18.23;;;15.60;;
18983;SDS011;9626;52.552;13.436;2022-11-15T11:51:27;20.50;;;14.60;;
18983;SDS011;9626;52.552;13.436;2022-11-15T11:54:00;19.00;;;14.80;;
18983;SDS011;9626;52.552;13.436;2022-11-15T11:56:36;18.90;;;14.47;;
18983;SDS011;9626;52.552;13.436;2022-11-15T11:59:07;16.77;;;13.73;;
18983;SDS011;9626;52.552;13.436;2022-11-15T12:01:44;19.83;;;14.13;;
18983;SDS011;9626;52.552;13.436;2022-11-15T12:04:14;17.27;;;14.47;;
18983;SDS011;9626;52.552;13.436;2022-11-15T12:06:55;18.53;;;13.97;;
18983;SDS011;9626;52.552;13.436;2022-11-15T12:09:33;19.00;;;13.93;;
18983;SDS011;9626;52.552;13.436;2022-11-15T12:12:23;19.87;;;13.70;;
18983;SDS011;9626;52.552;13.436;2022-11-15T12:17:23;19.97;;;14.03;;
18983;SDS011;9626;52.552;13.436;2022-11-15T12:20:55;16.63;;;13.90;;
18983;SDS011;9626;52.552;13.436;2022-11-15T12:23:04;17.30;;;13.40;;
18983;SDS011;9626;52.552;13.436;2022-11-15T12:31:11;19.50;;;13.53;;
18983;SDS011;9626;52.552;13.436;2022-11-15T12:33:58;21.63;;;14.00;;
18983;SDS011;9626;52.552;13.436;2022-11-15T12:36:35;16.30;;;13.80;;
18983;SDS011;9626;52.552;13.436;2022-11-15T12:39:05;19.23;;;13.10;;
18983;SDS011;9626;52.552;13.436;2022-11-15T12:41:36;17.90;;;13.03;;
18983;SDS011;9626;52.552;13.436;2022-11-15T12:44:04;21.03;;;14.33;;
18983;SDS011;9626;52.552;13.436;2022-11-15T13:03:12;17.53;;;13.43;;
18983;SDS011;9626;52.552;13.436;2022-11-15T13:05:55;19.43;;;14.27;;
18983;SDS011;9626;52.552;13.436;2022-11-15T13:08:46;18.30;;;13.73;;
18983;SDS011;9626;52.552;13.436;2022-11-15T13:19:42;21.40;;;13.50;;
18983;SDS011;9626;52.552;13.436;2022-11-15T13:22:09;18.80;;;12.53;;
18983;SDS011;9626;52.552;13.436;2022-11-15T13:24:54;22.73;;;12.13;;
18983;SDS011;9626;52.552;13.436;2022-11-15T13:27:21;17.87;;;12.43;;
18983;SDS011;9626;52.552;13.436;2022-11-15T13:29:47;17.97;;;12.70;;
18983;SDS011;9626;52.552;13.436;2022-11-15T13:32:13;20.53;;;12.83;;
18983;SDS011;9626;52.552;13.436;2022-11-15T13:34:48;16.80;;;11.93;;
18983;SDS011;9626;52.552;13.436;2022-11-15T13:39:47;13.43;;;11.57;;
18983;SDS011;9626;52.552;13.436;2022-11-15T13:42:15;15.60;;;11.93;;
18983;SDS011;9626;52.552;13.436;2022-11-15T13:44:54;16.40;;;11.90;;
18983;SDS011;9626;52.552;13.436;2022-11-15T13:47:22;14.90;;;11.60;;
18983;SDS011;9626;52.552;13.436;2022-11-15T13:49:52;16.90;;;11.70;;
18983;SDS011;9626;52.552;13.436;2022-11-15T13:52:19;14.67;;;11.50;;
18983;SDS011;9626;52.552;13.436;2022-11-15T13:57:48;14.53;;;11.80;;
18983;SDS011;9626;52.552;13.436;2022-11-15T14:00:34;15.97;;;10.63;;
18983;SDS011;9626;52.552;13.436;2022-11-15T14:03:05;17.60;;;11.87;;
18983;SDS011;9626;52.552;13.436;2022-11-15T14:05:33;18.43;;;12.43;;
18983;SDS011;9626;52.552;13.436;2022-11-15T14:08:05;17.23;;;13.03;;
18983;SDS011;9626;52.552;13.436;2022-11-15T14:10:38;20.30;;;13.30;;
18983;SDS011;9626;52.552;13.436;2022-11-15T14:13:09;18.97;;;13.00;;
18983;SDS011;9626;52.552;13.436;2022-11-15T14:15:52;19.07;;;13.60;;
18983;SDS011;9626;52.552;13.436;2022-11-15T14:21:15;17.30;;;12.80;;
18983;SDS011;9626;52.552;13.436;2022-11-15T14:23:42;20.33;;;13.63;;
18983;SDS011;9626;52.552;13.436;2022-11-15T14:26:28;16.47;;;13.67;;
18983;SDS011;9626;52.552;13.436;2022-11-15T14:28:56;19.47;;;13.07;;
18983;SDS011;9626;52.552;13.436;2022-11-15T14:31:22;21.30;;;16.50;;
18983;SDS011;9626;52.552;13.436;2022-11-15T14:33:49;22.97;;;15.10;;
18983;SDS011;9626;52.552;13.436;2022-11-15T14:36:16;17.30;;;13.77;;
18983;SDS011;9626;52.552;13.436;2022-11-15T14:38:46;17.93;;;13.77;;
18983;SDS011;9626;52.552;13.436;2022-11-15T14:41:23;21.07;;;15.03;;
18983;SDS011;9626;52.552;13.436;2022-11-15T14:43:52;19.53;;;14.03;;
18983;SDS011;9626;52.552;13.436;2022-11-15T14:46:18;17.03;;;13.87;;
18983;SDS011;9626;52.552;13.436;2022-11-15T14:48:45;21.43;;;15.00;;
18983;SDS011;9626;52.552;13.436;2022-11-15T14:51:11;17.57;;;14.53;;
18983;SDS011;9626;52.552;13.436;2022-11-15T14:53:44;18.47;;;15.10;;
18983;SDS011;9626;52.552;13.436;2022-11-15T14:56:11;19.70;;;15.00;;
18983;SDS011;9626;52.552;13.436;2022-11-15T14:58:37;21.33;;;15.37;;
18983;SDS011;9626;52.552;13.436;2022-11-15T15:01:14;18.57;;;14.23;;
18983;SDS011;9626;52.552;13.436;2022-11-15T15:03:44;20.27;;;15.67;;
18983;SDS011;9626;52.552;13.436;2022-11-15T15:06:11;19.00;;;14.70;;
18983;SDS011;9626;52.552;13.436;2022-11-15T15:08:38;22.33;;;15.73;;
18983;SDS011;9626;52.552;13.436;2022-11-15T15:11:24;20.73;;;15.10;;
18983;SDS011;9626;52.552;13.436;2022-11-15T15:13:52;18.00;;;15.27;;
18983;SDS011;9626;52.552;13.436;2022-11-15T15:16:21;19.40;;;14.57;;
18983;SDS011;9626;52.552;13.436;2022-11-15T15:18:48;18.87;;;14.93;;
18983;SDS011;9626;52.552;13.436;2022-11-15T15:21:21;18.77;;;15.17;;
18983;SDS011;9626;52.552;13.436;2022-11-15T15:23:48;20.20;;;16.90;;
18983;SDS011;9626;52.552;13.436;2022-11-15T15:26:14;18.27;;;15.63;;
18983;SDS011;9626;52.552;13.436;2022-11-15T15:28:40;17.77;;;15.23;;
18983;SDS011;9626;52.552;13.436;2022-11-15T15:31:07;21.83;;;15.60;;
18983;SDS011;9626;52.552;13.436;2022-11-15T15:33:34;23.23;;;16.73;;
18983;SDS011;9626;52.552;13.436;2022-11-15T15:36:00;23.60;;;16.67;;
18983;SDS011;9626;52.552;13.436;2022-11-15T15:38:26;22.50;;;16.83;;
18983;SDS011;9626;52.552;13.436;2022-11-15T15:40:52;22.43;;;16.37;;
18983;SDS011;9626;52.552;13.436;2022-11-15T15:43:18;20.57;;;16.07;;
18983;SDS011;9626;52.552;13.436;2022-11-15T15:45:45;21.60;;;16.17;;
18983;SDS011;9626;52.552;13.436;2022-11-15T15:48:30;22.63;;;16.07;;
18983;SDS011;9626;52.552;13.436;2022-11-15T15:51:17;21.90;;;16.47;;
18983;SDS011;9626;52.552;13.436;2022-11-15T15:53:43;23.97;;;16.67;;
18983;SDS011;9626;52.552;13.436;2022-11-15T15:56:09;26.13;;;17.53;;
18983;SDS011;9626;52.552;13.436;2022-11-15T15:58:35;24.27;;;16.87;;
18983;SDS011;9626;52.552;13.436;2022-11-15T16:01:01;23.40;;;16.50;;
18983;SDS011;9626;52.552;13.436;2022-11-15T16:03:27;22.80;;;16.10;;
18983;SDS011;9626;52.552;13.436;2022-11-15T16:05:53;23.10;;;18.13;;
18983;SDS011;9626;52.552;13.436;2022-11-15T16:08:20;24.00;;;17.33;;
18983;SDS011;9626;52.552;13.436;2022-11-15T16:10:49;21.70;;;17.63;;
18983;SDS011;9626;52.552;13.436;2022-11-15T16:13:15;18.53;;;15.20;;
18983;SDS011;9626;52.552;13.436;2022-11-15T16:15:55;19.47;;;15.93;;
18983;SDS011;9626;52.552;13.436;2022-11-15T16:18:21;25.30;;;16.87;;
18983;SDS011;9626;52.552;13.436;2022-11-15T16:20:48;20.27;;;16.20;;
18983;SDS011;9626;52.552;13.436;2022-11-15T16:23:22;23.77;;;16.80;;
18983;SDS011;9626;52.552;13.436;2022-11-15T16:25:55;20.50;;;16.43;;
18983;SDS011;9626;52.552;13.436;2022-11-15T16:28:22;24.53;;;16.37;;
18983;SDS011;9626;52.552;13.436;2022-11-15T16:30:49;22.90;;;18.27;;
18983;SDS011;9626;52.552;13.436;2022-11-15T16:33:24;22.30;;;17.87;;
18983;SDS011;9626;52.552;13.436;2022-11-15T16:35:51;22.87;;;18.30;;
18983;SDS011;9626;52.552;13.436;2022-11-15T16:38:17;23.10;;;19.37;;
18983;SDS011;9626;52.552;13.436;2022-11-15T16:40:43;26.27;;;19.93;;
18983;SDS011;9626;52.552;13.436;2022-11-15T16:43:10;23.30;;;18.93;;
18983;SDS011;9626;52.552;13.436;2022-11-15T16:45:36;25.47;;;19.83;;